Κάμερα προς Χιονοδρομικό webcam facing ski center


Κάμερα προς Νότο webcam facing south


Ραντάρ Κεραυνών blitzortung!


Ραντάρ Βροχής rain snow radar


Άλλες σελίδες καιρού:

Hotel Skamnos

Arachova Weather Station

Skamnos Weather Station

Skamnos Weather2

Arachova Weather2

WU Skamnos

WU Arachova


Γειτονικοί σταθμοί:

Parnassos Snow Forecast

Parnassos Snow Report

Kelaria 1950m

Kelaria 2240m

Fterolaka 2080m



Thunderstorms From: 27-07-2017 12:41 Until: 18:00 warning for: Thunderstorms Level: Orange info button
 

Εκθέσεις METAR

  
1089 - Arachova Meteo, Greece
Distance from station: Ν 10km
Updated: 27-07-2017 17:19
Καταιγίδες, Νεφελώδης
Καταιγίδες, Νεφελώδης  
 Ανεμος από ΒΑ
'Ανεμος: ΒΑ 2 km/h
Θερμοκρασία:  19°C
Σημείο Δρόσου:  15°C
Υγρασία:  78%
Βαρόμετρο:  1004 hPa
Περίληψη:  Καταιγίδες
Νεφελώδης:  Νεφελώδης
Visibility:  8 km
Cloud details:  Νεφελώδης 518 m
2017/07/27 14:19 1089 271419Z 04501KT 8000 TS OVC017 19/15 Q1004
1155 - Arachova2, Greece
Distance from station: Ν 10km
Updated: 27-07-2017 17:19
Καταιγίδες, Νεφελώδης
Καταιγίδες, Νεφελώδης  
 Ανεμος από ΒΒΑ
'Ανεμος: ΒΒΑ 4 km/h
Θερμοκρασία:  18°C
Σημείο Δρόσου:  15°C
Υγρασία:  83%
Βαρόμετρο:  1006 hPa
Περίληψη:  Καταιγίδες
Νεφελώδης:  Νεφελώδης
Visibility:  7 km
Cloud details:  Νεφελώδης 335 m
2017/07/27 14:19 1155 271419Z 02202KT 7000 TS OVC011 18/15 Q1006
1184 - Arachova VillaFiloxenia, Greece
Distance from station: Ν 10km
Updated: 09-05-2017 15:04
NOT Current
Μερικώς νεφελώδης
Μερικώς νεφελώδης  
 Ανεμος από calm
'Ανεμος: Άπνοια
Θερμοκρασία:  17°C
Σημείο Δρόσου:  9°C
Υγρασία:  59%
Βαρόμετρο:  1007 hPa
Νεφελώδης:  Μερικώς νεφελώδης
Visibility:  10 km
Cloud details:  Μερικώς νεφελώδης 1006 m
2017/05/09 12:04 1184 091204Z 00000KT 9999 SCT033 17/09 Q1007
1250 - Parnassos Kelaria 1950m, Greece
Distance from station: Α 3km
Updated: 27-07-2017 17:19
Καταιγίδες, Νεφελώδης
Καταιγίδες, Νεφελώδης  
 Ανεμος από Δ
'Ανεμος: Δ 11 km/h
Θερμοκρασία:  12°C
Σημείο Δρόσου:  8°C
Υγρασία:  77%
Βαρόμετρο:  1006 hPa
Περίληψη:  Καταιγίδες
Νεφελώδης:  Νεφελώδης
Visibility:  8 km
Cloud details:  Νεφελώδης 488 m
2017/07/27 14:19 1250 271419Z 27006KT 8000 TS OVC016 12/08 Q1006
1126 - Parnassos Fterolaka 2080m, Greece
Distance from station: Α 3km
Updated: 21-03-2015 01:04
NOT Current
Λίγα σύννεφα
Λίγα σύννεφα  
 Ανεμος από calm
'Ανεμος: Άπνοια
Θερμοκρασία:  -11°C
Σημείο Δρόσου:  -11°C
Υγρασία:  100%
Βαρόμετρο:  1019 hPa
Νεφελώδης:  Λίγα σύννεφα
Visibility:  6 km
Cloud details:  Λίγα σύννεφα 305 m
2015/03/20 23:04 1126 202304Z 00000KT 6000 FEW010 M11/M11 Q1019
1382 - Parnassos Helcules 2240m, Greece
Distance from station: Α 3km
Updated: 20-04-2015 13:20
NOT Current
Ομίχλη
Ομίχλη  
 Ανεμος από ΝΔ
'Ανεμος: ΝΔ 7 km/h
Θερμοκρασία:  1°C
Wind Chill:  -2°C
Σημείο Δρόσου:  1°C
Υγρασία:  100%
Βαρόμετρο:  1009 hPa
Περίληψη:  Ομίχλη
Visibility:  5 km
2015/04/20 10:20 1382 201020Z 22504KT 5000 FG 01/01 Q1009
1219 - Anrikyra, Greece
Distance from station: Ν 40km
Updated: 27-07-2017 17:19
Κυρίως νεφελώδης
Κυρίως νεφελώδης  
 Ανεμος από ΒΒΑ
'Ανεμος: ΒΒΑ 7 km/h
Θερμοκρασία:  24°C
Σημείο Δρόσου:  18°C
Υγρασία:  69%
Βαρόμετρο:  1004 hPa
Νεφελώδης:  Κυρίως νεφελώδης
Visibility:  9 km
Cloud details:  Κυρίως νεφελώδης 792 m
2017/07/27 14:19 1219 271419Z 02204KT 9000 BKN026 24/18 Q1004
1015 - Galaxeidi, Greece
Distance from station: Ν 40km
Updated: 27-07-2017 17:18
Μερικώς νεφελώδης
Μερικώς νεφελώδης  
 Ανεμος από ΒΔ
'Ανεμος: ΒΔ 22 km/h
Θερμοκρασία:  28°C
Δείκτης ζέστης:  28°C
Σημείο Δρόσου:  17°C
Υγρασία:  51%
Βαρόμετρο:  1014 hPa
Νεφελώδης:  Μερικώς νεφελώδης
Visibility:  10 km
Cloud details:  Μερικώς νεφελώδης 1311 m
2017/07/27 14:18 1015 271418Z 31512KT 9999 SCT043 28/17 Q1014
1088 - Amfikleia, Greece
Distance from station: Β 10km
Updated: 27-07-2017 16:49
Μερικώς νεφελώδης
Μερικώς νεφελώδης  
 Ανεμος από calm
'Ανεμος: Άπνοια
Θερμοκρασία:  25°C
Σημείο Δρόσου:  18°C
Υγρασία:  65%
Βαρόμετρο:  1003 hPa
Νεφελώδης:  Μερικώς νεφελώδης
Visibility:  9 km
Cloud details:  Μερικώς νεφελώδης 792 m
2017/07/27 13:49 1088 271349Z 00000KT 9000 SCT026 25/18 Q1003
1337 - Polydroso, Greece
Distance from station: Β 10km
Updated: 27-07-2017 17:19
Καταιγίδες, Μερικώς νεφελώδης
Καταιγίδες, Μερικώς νεφελώδης  
 Ανεμος από Α
'Ανεμος: Α 2 km/h
Θερμοκρασία:  24°C
Σημείο Δρόσου:  18°C
Υγρασία:  69%
Βαρόμετρο:  1004 hPa
Περίληψη:  Καταιγίδες
Νεφελώδης:  Μερικώς νεφελώδης
Visibility:  8 km
Cloud details:  Μερικώς νεφελώδης 762 m
2017/07/27 14:19 1337 271419Z 09001KT 8000 TS SCT025 24/18 Q1004

Αρχικά scripts από  Saratoga-weather.org Adapted for the template by  Weerstation Leuven